sensor_id;sensor_type;location;lat;lon;timestamp;P1;durP1;ratioP1;P2;durP2;ratioP2
54388;SDS011;40975;50.390;8.640;2023-04-03T00:01:01;1.77;;;0.93;;
54388;SDS011;40975;50.390;8.640;2023-04-03T00:03:26;1.10;;;0.70;;
54388;SDS011;40975;50.390;8.640;2023-04-03T00:05:52;3.13;;;0.80;;
54388;SDS011;40975;50.390;8.640;2023-04-03T00:08:17;0.90;;;0.90;;
54388;SDS011;40975;50.390;8.640;2023-04-03T00:10:43;1.15;;;0.80;;
54388;SDS011;40975;50.390;8.640;2023-04-03T00:13:08;1.83;;;0.85;;
54388;SDS011;40975;50.390;8.640;2023-04-03T00:15:34;1.98;;;0.65;;
54388;SDS011;40975;50.390;8.640;2023-04-03T00:18:01;3.08;;;0.82;;
54388;SDS011;40975;50.390;8.640;2023-04-03T00:20:27;1.92;;;0.88;;
54388;SDS011;40975;50.390;8.640;2023-04-03T00:22:53;2.65;;;0.80;;
54388;SDS011;40975;50.390;8.640;2023-04-03T00:25:19;4.35;;;0.93;;
54388;SDS011;40975;50.390;8.640;2023-04-03T00:27:44;1.50;;;0.77;;
54388;SDS011;40975;50.390;8.640;2023-04-03T00:30:11;1.95;;;0.80;;
54388;SDS011;40975;50.390;8.640;2023-04-03T00:32:39;1.00;;;0.70;;
54388;SDS011;40975;50.390;8.640;2023-04-03T00:35:04;0.77;;;0.70;;
54388;SDS011;40975;50.390;8.640;2023-04-03T00:37:30;1.55;;;1.05;;
54388;SDS011;40975;50.390;8.640;2023-04-03T00:39:56;2.20;;;0.90;;
54388;SDS011;40975;50.390;8.640;2023-04-03T00:42:21;4.30;;;1.23;;
54388;SDS011;40975;50.390;8.640;2023-04-03T00:47:12;1.00;;;0.60;;
54388;SDS011;40975;50.390;8.640;2023-04-03T00:49:40;1.88;;;0.88;;
54388;SDS011;40975;50.390;8.640;2023-04-03T00:52:07;4.57;;;1.00;;
54388;SDS011;40975;50.390;8.640;2023-04-03T00:54:37;3.42;;;1.00;;
54388;SDS011;40975;50.390;8.640;2023-04-03T00:57:03;3.75;;;0.60;;
54388;SDS011;40975;50.390;8.640;2023-04-03T00:59:31;1.85;;;0.80;;
54388;SDS011;40975;50.390;8.640;2023-04-03T01:02:00;1.63;;;0.50;;
54388;SDS011;40975;50.390;8.640;2023-04-03T01:04:35;2.25;;;0.95;;
54388;SDS011;40975;50.390;8.640;2023-04-03T01:07:21;0.85;;;0.52;;
54388;SDS011;40975;50.390;8.640;2023-04-03T01:09:52;2.08;;;0.70;;
54388;SDS011;40975;50.390;8.640;2023-04-03T01:14:59;3.58;;;1.00;;
54388;SDS011;40975;50.390;8.640;2023-04-03T01:17:34;2.47;;;0.90;;
54388;SDS011;40975;50.390;8.640;2023-04-03T01:20:12;5.50;;;0.88;;
54388;SDS011;40975;50.390;8.640;2023-04-03T01:23:17;0.52;;;0.50;;
54388;SDS011;40975;50.390;8.640;2023-04-03T01:25:51;0.75;;;0.52;;
54388;SDS011;40975;50.390;8.640;2023-04-03T01:28:20;1.65;;;0.70;;
54388;SDS011;40975;50.390;8.640;2023-04-03T01:30:50;3.40;;;0.70;;
54388;SDS011;40975;50.390;8.640;2023-04-03T01:33:21;1.10;;;0.60;;
54388;SDS011;40975;50.390;8.640;2023-04-03T01:35:47;3.38;;;0.75;;
54388;SDS011;40975;50.390;8.640;2023-04-03T01:38:13;3.03;;;1.02;;
54388;SDS011;40975;50.390;8.640;2023-04-03T01:40:38;1.95;;;0.77;;
54388;SDS011;40975;50.390;8.640;2023-04-03T01:43:04;2.13;;;0.70;;
54388;SDS011;40975;50.390;8.640;2023-04-03T01:45:29;3.20;;;0.75;;
54388;SDS011;40975;50.390;8.640;2023-04-03T01:47:55;5.82;;;0.70;;
54388;SDS011;40975;50.390;8.640;2023-04-03T01:50:23;1.42;;;0.50;;
54388;SDS011;40975;50.390;8.640;2023-04-03T01:52:48;3.08;;;1.02;;
54388;SDS011;40975;50.390;8.640;2023-04-03T01:55:13;5.25;;;0.82;;
54388;SDS011;40975;50.390;8.640;2023-04-03T01:57:40;1.67;;;0.70;;
54388;SDS011;40975;50.390;8.640;2023-04-03T02:00:05;0.93;;;0.50;;
54388;SDS011;40975;50.390;8.640;2023-04-03T02:02:38;0.65;;;0.47;;
54388;SDS011;40975;50.390;8.640;2023-04-03T02:05:03;0.82;;;0.38;;
54388;SDS011;40975;50.390;8.640;2023-04-03T02:07:29;1.45;;;0.40;;
54388;SDS011;40975;50.390;8.640;2023-04-03T02:09:54;0.75;;;0.52;;
54388;SDS011;40975;50.390;8.640;2023-04-03T02:12:20;2.83;;;0.98;;
54388;SDS011;40975;50.390;8.640;2023-04-03T02:14:45;3.40;;;0.77;;
54388;SDS011;40975;50.390;8.640;2023-04-03T02:17:11;1.67;;;0.50;;
54388;SDS011;40975;50.390;8.640;2023-04-03T02:19:36;2.75;;;0.70;;
54388;SDS011;40975;50.390;8.640;2023-04-03T02:22:05;0.85;;;0.60;;
54388;SDS011;40975;50.390;8.640;2023-04-03T02:24:30;1.95;;;0.68;;
54388;SDS011;40975;50.390;8.640;2023-04-03T02:26:58;1.02;;;0.50;;
54388;SDS011;40975;50.390;8.640;2023-04-03T02:29:23;1.02;;;0.88;;
54388;SDS011;40975;50.390;8.640;2023-04-03T02:31:50;1.13;;;0.63;;
54388;SDS011;40975;50.390;8.640;2023-04-03T02:34:16;1.05;;;0.60;;
54388;SDS011;40975;50.390;8.640;2023-04-03T02:36:42;2.60;;;0.70;;
54388;SDS011;40975;50.390;8.640;2023-04-03T02:39:11;0.73;;;0.40;;
54388;SDS011;40975;50.390;8.640;2023-04-03T02:41:36;3.45;;;0.70;;
54388;SDS011;40975;50.390;8.640;2023-04-03T02:44:09;1.95;;;0.68;;
54388;SDS011;40975;50.390;8.640;2023-04-03T02:46:35;7.85;;;0.82;;
54388;SDS011;40975;50.390;8.640;2023-04-03T02:49:01;3.65;;;0.73;;
54388;SDS011;40975;50.390;8.640;2023-04-03T02:51:27;3.45;;;0.93;;
54388;SDS011;40975;50.390;8.640;2023-04-03T02:53:53;3.15;;;1.10;;
54388;SDS011;40975;50.390;8.640;2023-04-03T02:56:24;2.70;;;1.02;;
54388;SDS011;40975;50.390;8.640;2023-04-03T02:58:49;0.80;;;0.73;;
54388;SDS011;40975;50.390;8.640;2023-04-03T03:01:16;4.30;;;0.73;;
54388;SDS011;40975;50.390;8.640;2023-04-03T03:03:42;2.47;;;0.95;;
54388;SDS011;40975;50.390;8.640;2023-04-03T03:06:09;1.23;;;0.80;;
54388;SDS011;40975;50.390;8.640;2023-04-03T03:08:39;1.60;;;0.85;;
54388;SDS011;40975;50.390;8.640;2023-04-03T03:11:06;3.20;;;0.80;;
54388;SDS011;40975;50.390;8.640;2023-04-03T03:13:32;3.50;;;0.80;;
54388;SDS011;40975;50.390;8.640;2023-04-03T03:15:58;1.63;;;0.88;;
54388;SDS011;40975;50.390;8.640;2023-04-03T03:18:24;2.05;;;0.90;;
54388;SDS011;40975;50.390;8.640;2023-04-03T03:20:53;1.98;;;0.47;;
54388;SDS011;40975;50.390;8.640;2023-04-03T03:23:20;2.45;;;1.10;;
54388;SDS011;40975;50.390;8.640;2023-04-03T03:25:46;2.78;;;0.70;;
54388;SDS011;40975;50.390;8.640;2023-04-03T03:28:11;3.53;;;0.80;;
54388;SDS011;40975;50.390;8.640;2023-04-03T03:30:37;1.67;;;0.50;;
54388;SDS011;40975;50.390;8.640;2023-04-03T03:33:02;0.90;;;0.63;;
54388;SDS011;40975;50.390;8.640;2023-04-03T03:35:28;1.55;;;0.70;;
54388;SDS011;40975;50.390;8.640;2023-04-03T03:37:53;4.50;;;1.00;;
54388;SDS011;40975;50.390;8.640;2023-04-03T03:40:19;1.25;;;1.15;;
54388;SDS011;40975;50.390;8.640;2023-04-03T03:42:45;3.58;;;1.17;;
54388;SDS011;40975;50.390;8.640;2023-04-03T03:45:10;3.33;;;0.90;;
54388;SDS011;40975;50.390;8.640;2023-04-03T03:47:35;2.85;;;1.05;;
54388;SDS011;40975;50.390;8.640;2023-04-03T03:50:01;3.30;;;0.88;;
54388;SDS011;40975;50.390;8.640;2023-04-03T03:52:27;3.55;;;0.88;;
54388;SDS011;40975;50.390;8.640;2023-04-03T03:54:53;3.40;;;1.15;;
54388;SDS011;40975;50.390;8.640;2023-04-03T03:57:18;3.13;;;1.00;;
54388;SDS011;40975;50.390;8.640;2023-04-03T03:59:44;2.20;;;0.63;;
54388;SDS011;40975;50.390;8.640;2023-04-03T04:02:10;0.82;;;0.82;;
54388;SDS011;40975;50.390;8.640;2023-04-03T04:04:36;3.53;;;1.10;;
54388;SDS011;40975;50.390;8.640;2023-04-03T04:07:02;1.17;;;0.80;;
54388;SDS011;40975;50.390;8.640;2023-04-03T04:09:29;3.03;;;0.55;;
54388;SDS011;40975;50.390;8.640;2023-04-03T04:11:56;2.80;;;1.08;;
54388;SDS011;40975;50.390;8.640;2023-04-03T04:14:21;5.00;;;1.38;;
54388;SDS011;40975;50.390;8.640;2023-04-03T04:16:48;4.13;;;1.00;;
54388;SDS011;40975;50.390;8.640;2023-04-03T04:19:19;2.60;;;0.90;;
54388;SDS011;40975;50.390;8.640;2023-04-03T04:21:44;3.47;;;1.02;;
54388;SDS011;40975;50.390;8.640;2023-04-03T04:24:10;5.75;;;0.77;;
54388;SDS011;40975;50.390;8.640;2023-04-03T04:26:37;2.22;;;0.70;;
54388;SDS011;40975;50.390;8.640;2023-04-03T04:29:02;1.08;;;0.70;;
54388;SDS011;40975;50.390;8.640;2023-04-03T04:31:32;3.28;;;0.60;;
54388;SDS011;40975;50.390;8.640;2023-04-03T04:33:57;3.42;;;0.90;;
54388;SDS011;40975;50.390;8.640;2023-04-03T04:36:23;4.13;;;0.95;;
54388;SDS011;40975;50.390;8.640;2023-04-03T04:38:48;2.00;;;0.80;;
54388;SDS011;40975;50.390;8.640;2023-04-03T04:41:14;5.25;;;0.90;;
54388;SDS011;40975;50.390;8.640;2023-04-03T04:43:40;2.95;;;1.05;;
54388;SDS011;40975;50.390;8.640;2023-04-03T04:46:07;0.68;;;0.57;;
54388;SDS011;40975;50.390;8.640;2023-04-03T04:48:40;1.23;;;0.85;;
54388;SDS011;40975;50.390;8.640;2023-04-03T04:51:06;0.73;;;0.55;;
54388;SDS011;40975;50.390;8.640;2023-04-03T04:53:34;2.15;;;0.90;;
54388;SDS011;40975;50.390;8.640;2023-04-03T04:56:00;3.00;;;0.50;;
54388;SDS011;40975;50.390;8.640;2023-04-03T04:58:25;2.35;;;0.60;;
54388;SDS011;40975;50.390;8.640;2023-04-03T05:00:58;3.22;;;0.80;;
54388;SDS011;40975;50.390;8.640;2023-04-03T05:03:33;4.22;;;0.82;;
54388;SDS011;40975;50.390;8.640;2023-04-03T05:05:58;1.98;;;1.00;;
54388;SDS011;40975;50.390;8.640;2023-04-03T05:08:24;2.08;;;0.80;;
54388;SDS011;40975;50.390;8.640;2023-04-03T05:10:49;1.58;;;0.93;;
54388;SDS011;40975;50.390;8.640;2023-04-03T05:13:16;2.53;;;0.82;;
54388;SDS011;40975;50.390;8.640;2023-04-03T05:15:43;2.28;;;0.80;;
54388;SDS011;40975;50.390;8.640;2023-04-03T05:18:08;1.17;;;0.88;;
54388;SDS011;40975;50.390;8.640;2023-04-03T05:20:34;4.40;;;0.80;;
54388;SDS011;40975;50.390;8.640;2023-04-03T05:23:00;5.40;;;0.82;;
54388;SDS011;40975;50.390;8.640;2023-04-03T05:25:25;1.40;;;0.80;;
54388;SDS011;40975;50.390;8.640;2023-04-03T05:27:51;1.33;;;0.88;;
54388;SDS011;40975;50.390;8.640;2023-04-03T05:30:17;2.65;;;0.80;;
54388;SDS011;40975;50.390;8.640;2023-04-03T05:32:43;2.38;;;1.10;;
54388;SDS011;40975;50.390;8.640;2023-04-03T05:35:17;5.97;;;1.20;;
54388;SDS011;40975;50.390;8.640;2023-04-03T05:37:44;3.50;;;1.05;;
54388;SDS011;40975;50.390;8.640;2023-04-03T05:40:09;1.63;;;1.00;;
54388;SDS011;40975;50.390;8.640;2023-04-03T05:42:37;1.90;;;1.05;;
54388;SDS011;40975;50.390;8.640;2023-04-03T05:45:03;4.60;;;1.20;;
54388;SDS011;40975;50.390;8.640;2023-04-03T05:47:29;1.60;;;1.08;;
54388;SDS011;40975;50.390;8.640;2023-04-03T05:49:56;1.48;;;0.85;;
54388;SDS011;40975;50.390;8.640;2023-04-03T05:52:23;3.75;;;1.00;;
54388;SDS011;40975;50.390;8.640;2023-04-03T05:54:50;3.45;;;0.90;;
54388;SDS011;40975;50.390;8.640;2023-04-03T05:57:22;2.35;;;1.17;;
54388;SDS011;40975;50.390;8.640;2023-04-03T05:59:47;2.53;;;1.17;;
54388;SDS011;40975;50.390;8.640;2023-04-03T06:02:15;2.85;;;1.10;;
54388;SDS011;40975;50.390;8.640;2023-04-03T06:04:42;4.05;;;1.02;;
54388;SDS011;40975;50.390;8.640;2023-04-03T06:07:12;2.58;;;0.88;;
54388;SDS011;40975;50.390;8.640;2023-04-03T06:09:40;4.70;;;1.00;;
54388;SDS011;40975;50.390;8.640;2023-04-03T06:12:07;1.35;;;1.02;;
54388;SDS011;40975;50.390;8.640;2023-04-03T06:14:32;2.85;;;1.30;;
54388;SDS011;40975;50.390;8.640;2023-04-03T06:16:57;5.57;;;1.00;;
54388;SDS011;40975;50.390;8.640;2023-04-03T06:19:23;4.90;;;1.40;;
54388;SDS011;40975;50.390;8.640;2023-04-03T06:21:53;2.03;;;1.00;;
54388;SDS011;40975;50.390;8.640;2023-04-03T06:24:18;2.50;;;1.40;;
54388;SDS011;40975;50.390;8.640;2023-04-03T06:26:46;4.35;;;1.33;;
54388;SDS011;40975;50.390;8.640;2023-04-03T06:29:12;4.88;;;1.38;;
54388;SDS011;40975;50.390;8.640;2023-04-03T06:31:38;2.60;;;1.60;;
54388;SDS011;40975;50.390;8.640;2023-04-03T06:34:04;3.22;;;1.42;;
54388;SDS011;40975;50.390;8.640;2023-04-03T06:36:29;3.53;;;1.30;;
54388;SDS011;40975;50.390;8.640;2023-04-03T06:38:55;3.25;;;1.52;;
54388;SDS011;40975;50.390;8.640;2023-04-03T06:41:20;2.65;;;1.13;;
54388;SDS011;40975;50.390;8.640;2023-04-03T06:43:46;1.70;;;0.88;;
54388;SDS011;40975;50.390;8.640;2023-04-03T06:46:15;2.25;;;1.17;;
54388;SDS011;40975;50.390;8.640;2023-04-03T06:48:50;3.72;;;1.05;;
54388;SDS011;40975;50.390;8.640;2023-04-03T06:51:20;3.25;;;1.23;;
54388;SDS011;40975;50.390;8.640;2023-04-03T06:53:48;3.88;;;1.40;;
54388;SDS011;40975;50.390;8.640;2023-04-03T06:56:14;2.83;;;1.30;;
54388;SDS011;40975;50.390;8.640;2023-04-03T06:58:40;2.83;;;1.40;;
54388;SDS011;40975;50.390;8.640;2023-04-03T07:01:06;4.45;;;1.45;;
54388;SDS011;40975;50.390;8.640;2023-04-03T07:03:32;2.75;;;1.73;;
54388;SDS011;40975;50.390;8.640;2023-04-03T07:05:57;2.92;;;1.23;;
54388;SDS011;40975;50.390;8.640;2023-04-03T07:08:23;1.30;;;1.10;;
54388;SDS011;40975;50.390;8.640;2023-04-03T07:10:48;3.30;;;1.35;;
54388;SDS011;40975;50.390;8.640;2023-04-03T07:13:14;4.53;;;1.30;;
54388;SDS011;40975;50.390;8.640;2023-04-03T07:15:40;3.90;;;1.35;;
54388;SDS011;40975;50.390;8.640;2023-04-03T07:18:06;5.00;;;1.70;;
54388;SDS011;40975;50.390;8.640;2023-04-03T07:20:31;5.07;;;1.70;;
54388;SDS011;40975;50.390;8.640;2023-04-03T07:22:56;5.20;;;2.00;;
54388;SDS011;40975;50.390;8.640;2023-04-03T07:25:22;3.10;;;1.40;;
54388;SDS011;40975;50.390;8.640;2023-04-03T07:27:47;4.30;;;1.50;;
54388;SDS011;40975;50.390;8.640;2023-04-03T07:30:14;1.48;;;1.20;;
54388;SDS011;40975;50.390;8.640;2023-04-03T07:32:39;3.25;;;1.40;;
54388;SDS011;40975;50.390;8.640;2023-04-03T07:35:05;3.88;;;1.38;;
54388;SDS011;40975;50.390;8.640;2023-04-03T07:37:31;2.20;;;1.15;;
54388;SDS011;40975;50.390;8.640;2023-04-03T07:39:57;3.47;;;1.50;;
54388;SDS011;40975;50.390;8.640;2023-04-03T07:42:24;3.58;;;1.35;;
54388;SDS011;40975;50.390;8.640;2023-04-03T07:44:51;4.30;;;1.10;;
54388;SDS011;40975;50.390;8.640;2023-04-03T07:47:17;4.68;;;1.38;;
54388;SDS011;40975;50.390;8.640;2023-04-03T07:49:43;3.05;;;1.33;;
54388;SDS011;40975;50.390;8.640;2023-04-03T07:52:08;3.53;;;1.13;;
54388;SDS011;40975;50.390;8.640;2023-04-03T07:54:34;3.60;;;1.08;;
54388;SDS011;40975;50.390;8.640;2023-04-03T07:56:59;2.30;;;1.05;;
54388;SDS011;40975;50.390;8.640;2023-04-03T07:59:25;2.70;;;1.10;;
54388;SDS011;40975;50.390;8.640;2023-04-03T08:01:50;2.30;;;1.02;;
54388;SDS011;40975;50.390;8.640;2023-04-03T08:04:16;2.53;;;1.50;;
54388;SDS011;40975;50.390;8.640;2023-04-03T08:06:41;2.13;;;1.10;;
54388;SDS011;40975;50.390;8.640;2023-04-03T08:09:07;2.85;;;0.90;;
54388;SDS011;40975;50.390;8.640;2023-04-03T08:11:33;1.67;;;0.85;;
54388;SDS011;40975;50.390;8.640;2023-04-03T08:13:58;1.52;;;0.98;;
54388;SDS011;40975;50.390;8.640;2023-04-03T08:16:24;3.75;;;0.95;;
54388;SDS011;40975;50.390;8.640;2023-04-03T08:18:53;5.53;;;1.10;;
54388;SDS011;40975;50.390;8.640;2023-04-03T08:21:20;3.72;;;1.30;;
54388;SDS011;40975;50.390;8.640;2023-04-03T08:23:47;4.32;;;1.00;;
54388;SDS011;40975;50.390;8.640;2023-04-03T08:26:16;5.05;;;1.30;;
54388;SDS011;40975;50.390;8.640;2023-04-03T08:28:43;1.48;;;1.35;;
54388;SDS011;40975;50.390;8.640;2023-04-03T08:31:10;1.10;;;0.90;;
54388;SDS011;40975;50.390;8.640;2023-04-03T08:33:37;2.72;;;1.15;;
54388;SDS011;40975;50.390;8.640;2023-04-03T08:36:04;3.42;;;1.48;;
54388;SDS011;40975;50.390;8.640;2023-04-03T08:38:31;4.18;;;1.00;;
54388;SDS011;40975;50.390;8.640;2023-04-03T08:46:58;4.00;;;1.45;;
54388;SDS011;40975;50.390;8.640;2023-04-03T08:49:45;3.33;;;0.90;;
54388;SDS011;40975;50.390;8.640;2023-04-03T08:52:20;3.85;;;0.82;;
54388;SDS011;40975;50.390;8.640;2023-04-03T08:54:54;3.95;;;1.15;;
54388;SDS011;40975;50.390;8.640;2023-04-03T08:57:27;2.30;;;1.17;;
54388;SDS011;40975;50.390;8.640;2023-04-03T09:00:16;2.30;;;1.30;;
54388;SDS011;40975;50.390;8.640;2023-04-03T09:02:45;1.13;;;1.00;;
54388;SDS011;40975;50.390;8.640;2023-04-03T09:05:14;3.65;;;1.20;;
54388;SDS011;40975;50.390;8.640;2023-04-03T09:07:46;2.03;;;1.00;;
54388;SDS011;40975;50.390;8.640;2023-04-03T09:12:49;2.08;;;1.10;;
54388;SDS011;40975;50.390;8.640;2023-04-03T09:15:23;4.45;;;0.90;;
54388;SDS011;40975;50.390;8.640;2023-04-03T09:20:48;2.45;;;0.95;;
54388;SDS011;40975;50.390;8.640;2023-04-03T09:23:42;3.85;;;1.33;;
54388;SDS011;40975;50.390;8.640;2023-04-03T09:26:18;1.00;;;1.00;;
54388;SDS011;40975;50.390;8.640;2023-04-03T09:28:50;2.20;;;1.10;;
54388;SDS011;40975;50.390;8.640;2023-04-03T09:31:23;3.38;;;1.13;;
54388;SDS011;40975;50.390;8.640;2023-04-03T09:33:52;1.90;;;1.30;;
54388;SDS011;40975;50.390;8.640;2023-04-03T09:39:27;2.65;;;1.10;;
54388;SDS011;40975;50.390;8.640;2023-04-03T09:42:01;1.27;;;1.00;;
54388;SDS011;40975;50.390;8.640;2023-04-03T09:44:36;1.15;;;1.05;;
54388;SDS011;40975;50.390;8.640;2023-04-03T09:47:19;2.72;;;1.45;;
54388;SDS011;40975;50.390;8.640;2023-04-03T09:49:44;2.67;;;1.10;;
54388;SDS011;40975;50.390;8.640;2023-04-03T09:52:22;2.35;;;1.50;;
54388;SDS011;40975;50.390;8.640;2023-04-03T09:54:49;3.13;;;1.67;;
54388;SDS011;40975;50.390;8.640;2023-04-03T09:57:14;1.38;;;0.93;;
54388;SDS011;40975;50.390;8.640;2023-04-03T09:59:42;2.03;;;1.00;;
54388;SDS011;40975;50.390;8.640;2023-04-03T10:04:37;3.23;;;1.50;;
54388;SDS011;40975;50.390;8.640;2023-04-03T10:07:30;1.50;;;1.10;;
54388;SDS011;40975;50.390;8.640;2023-04-03T10:09:56;2.20;;;1.35;;
54388;SDS011;40975;50.390;8.640;2023-04-03T10:12:23;4.47;;;1.17;;
54388;SDS011;40975;50.390;8.640;2023-04-03T10:14:56;2.55;;;1.40;;
54388;SDS011;40975;50.390;8.640;2023-04-03T10:20:26;2.15;;;1.23;;
54388;SDS011;40975;50.390;8.640;2023-04-03T10:23:05;1.52;;;1.15;;
54388;SDS011;40975;50.390;8.640;2023-04-03T10:28:27;4.00;;;1.60;;
54388;SDS011;40975;50.390;8.640;2023-04-03T10:33:57;2.60;;;1.40;;
54388;SDS011;40975;50.390;8.640;2023-04-03T10:36:47;2.33;;;1.15;;
54388;SDS011;40975;50.390;8.640;2023-04-03T10:39:31;2.00;;;1.25;;
54388;SDS011;40975;50.390;8.640;2023-04-03T10:47:36;2.58;;;1.10;;
54388;SDS011;40975;50.390;8.640;2023-04-03T10:50:22;4.25;;;1.20;;
54388;SDS011;40975;50.390;8.640;2023-04-03T10:53:01;2.42;;;1.10;;
54388;SDS011;40975;50.390;8.640;2023-04-03T10:55:38;1.42;;;0.93;;
54388;SDS011;40975;50.390;8.640;2023-04-03T10:58:14;3.72;;;1.55;;
54388;SDS011;40975;50.390;8.640;2023-04-03T11:00:50;1.90;;;1.25;;
54388;SDS011;40975;50.390;8.640;2023-04-03T11:06:02;3.05;;;1.30;;
54388;SDS011;40975;50.390;8.640;2023-04-03T11:08:34;3.33;;;1.13;;
54388;SDS011;40975;50.390;8.640;2023-04-03T11:11:11;2.67;;;1.45;;
54388;SDS011;40975;50.390;8.640;2023-04-03T11:13:54;1.90;;;1.17;;
54388;SDS011;40975;50.390;8.640;2023-04-03T11:16:43;3.53;;;1.30;;
54388;SDS011;40975;50.390;8.640;2023-04-03T11:19:33;0.93;;;0.73;;
54388;SDS011;40975;50.390;8.640;2023-04-03T11:22:39;3.35;;;1.65;;
54388;SDS011;40975;50.390;8.640;2023-04-03T11:25:26;2.33;;;1.20;;
54388;SDS011;40975;50.390;8.640;2023-04-03T11:28:03;1.95;;;0.90;;
54388;SDS011;40975;50.390;8.640;2023-04-03T11:30:44;2.38;;;0.80;;
54388;SDS011;40975;50.390;8.640;2023-04-03T11:33:17;1.55;;;0.88;;
54388;SDS011;40975;50.390;8.640;2023-04-03T11:35:47;0.80;;;0.70;;
54388;SDS011;40975;50.390;8.640;2023-04-03T11:38:18;1.42;;;0.80;;
54388;SDS011;40975;50.390;8.640;2023-04-03T11:40:48;1.55;;;0.77;;
54388;SDS011;40975;50.390;8.640;2023-04-03T11:46:06;1.35;;;0.90;;
54388;SDS011;40975;50.390;8.640;2023-04-03T11:51:01;3.20;;;0.90;;
54388;SDS011;40975;50.390;8.640;2023-04-03T11:53:37;1.60;;;0.73;;
54388;SDS011;40975;50.390;8.640;2023-04-03T12:01:45;1.95;;;0.98;;
54388;SDS011;40975;50.390;8.640;2023-04-03T12:04:17;5.53;;;1.52;;
54388;SDS011;40975;50.390;8.640;2023-04-03T12:15:22;1.40;;;0.80;;
54388;SDS011;40975;50.390;8.640;2023-04-03T12:17:47;0.82;;;0.60;;
54388;SDS011;40975;50.390;8.640;2023-04-03T12:23:28;2.03;;;0.90;;
54388;SDS011;40975;50.390;8.640;2023-04-03T12:28:46;2.67;;;0.75;;
54388;SDS011;40975;50.390;8.640;2023-04-03T12:31:15;0.85;;;0.60;;
54388;SDS011;40975;50.390;8.640;2023-04-03T12:33:46;1.10;;;0.57;;
54388;SDS011;40975;50.390;8.640;2023-04-03T12:44:51;1.05;;;0.70;;
54388;SDS011;40975;50.390;8.640;2023-04-03T12:47:31;2.70;;;0.75;;
54388;SDS011;40975;50.390;8.640;2023-04-03T12:50:01;0.50;;;0.50;;
54388;SDS011;40975;50.390;8.640;2023-04-03T12:52:33;1.95;;;0.52;;
54388;SDS011;40975;50.390;8.640;2023-04-03T12:55:07;2.15;;;0.63;;
54388;SDS011;40975;50.390;8.640;2023-04-03T12:57:40;1.65;;;0.80;;
54388;SDS011;40975;50.390;8.640;2023-04-03T13:00:18;2.55;;;0.80;;
54388;SDS011;40975;50.390;8.640;2023-04-03T13:02:44;1.20;;;0.43;;
54388;SDS011;40975;50.390;8.640;2023-04-03T13:05:14;1.80;;;0.52;;
54388;SDS011;40975;50.390;8.640;2023-04-03T13:07:42;1.67;;;0.40;;
54388;SDS011;40975;50.390;8.640;2023-04-03T13:12:34;2.63;;;0.93;;
54388;SDS011;40975;50.390;8.640;2023-04-03T13:15:11;1.77;;;0.60;;
54388;SDS011;40975;50.390;8.640;2023-04-03T13:17:39;0.93;;;0.70;;
54388;SDS011;40975;50.390;8.640;2023-04-03T13:20:13;0.90;;;0.40;;
54388;SDS011;40975;50.390;8.640;2023-04-03T13:23:00;3.35;;;0.80;;
54388;SDS011;40975;50.390;8.640;2023-04-03T13:25:28;0.70;;;0.38;;
54388;SDS011;40975;50.390;8.640;2023-04-03T13:27:56;0.75;;;0.40;;
54388;SDS011;40975;50.390;8.640;2023-04-03T13:30:28;2.03;;;0.47;;
54388;SDS011;40975;50.390;8.640;2023-04-03T13:32:58;0.63;;;0.50;;
54388;SDS011;40975;50.390;8.640;2023-04-03T13:35:30;0.90;;;0.40;;
54388;SDS011;40975;50.390;8.640;2023-04-03T13:37:59;1.25;;;0.47;;
54388;SDS011;40975;50.390;8.640;2023-04-03T13:40:27;0.77;;;0.50;;
54388;SDS011;40975;50.390;8.640;2023-04-03T13:43:00;0.80;;;0.40;;
54388;SDS011;40975;50.390;8.640;2023-04-03T13:45:29;3.42;;;0.68;;
54388;SDS011;40975;50.390;8.640;2023-04-03T13:48:16;1.92;;;0.90;;
54388;SDS011;40975;50.390;8.640;2023-04-03T13:50:55;1.17;;;0.38;;
54388;SDS011;40975;50.390;8.640;2023-04-03T13:53:24;3.20;;;0.80;;
54388;SDS011;40975;50.390;8.640;2023-04-03T13:58:23;1.33;;;0.70;;
54388;SDS011;40975;50.390;8.640;2023-04-03T14:03:46;1.60;;;0.65;;
54388;SDS011;40975;50.390;8.640;2023-04-03T14:06:16;1.80;;;0.70;;
54388;SDS011;40975;50.390;8.640;2023-04-03T14:08:43;0.70;;;0.50;;
54388;SDS011;40975;50.390;8.640;2023-04-03T14:11:11;1.23;;;0.50;;
54388;SDS011;40975;50.390;8.640;2023-04-03T14:13:40;1.65;;;0.57;;
54388;SDS011;40975;50.390;8.640;2023-04-03T14:16:06;1.05;;;0.55;;
54388;SDS011;40975;50.390;8.640;2023-04-03T14:18:31;4.88;;;0.60;;
54388;SDS011;40975;50.390;8.640;2023-04-03T14:20:56;0.75;;;0.43;;
54388;SDS011;40975;50.390;8.640;2023-04-03T14:23:22;1.83;;;0.60;;
54388;SDS011;40975;50.390;8.640;2023-04-03T14:25:47;1.45;;;0.40;;
54388;SDS011;40975;50.390;8.640;2023-04-03T14:28:19;2.28;;;0.65;;
54388;SDS011;40975;50.390;8.640;2023-04-03T14:30:47;2.33;;;0.50;;
54388;SDS011;40975;50.390;8.640;2023-04-03T14:33:16;1.70;;;0.70;;
54388;SDS011;40975;50.390;8.640;2023-04-03T14:35:43;3.53;;;0.90;;
54388;SDS011;40975;50.390;8.640;2023-04-03T14:38:20;2.38;;;0.43;;
54388;SDS011;40975;50.390;8.640;2023-04-03T14:40:49;1.83;;;0.60;;
54388;SDS011;40975;50.390;8.640;2023-04-03T14:43:15;3.60;;;0.50;;
54388;SDS011;40975;50.390;8.640;2023-04-03T14:45:41;1.42;;;0.40;;
54388;SDS011;40975;50.390;8.640;2023-04-03T14:48:09;2.13;;;0.60;;
54388;SDS011;40975;50.390;8.640;2023-04-03T14:50:41;1.40;;;0.63;;
54388;SDS011;40975;50.390;8.640;2023-04-03T14:53:07;3.15;;;0.57;;
54388;SDS011;40975;50.390;8.640;2023-04-03T14:55:32;4.03;;;0.95;;
54388;SDS011;40975;50.390;8.640;2023-04-03T14:57:58;1.23;;;0.47;;
54388;SDS011;40975;50.390;8.640;2023-04-03T15:00:24;1.20;;;0.60;;
54388;SDS011;40975;50.390;8.640;2023-04-03T15:02:49;2.33;;;0.57;;
54388;SDS011;40975;50.390;8.640;2023-04-03T15:05:15;1.85;;;0.63;;
54388;SDS011;40975;50.390;8.640;2023-04-03T15:07:42;4.05;;;0.70;;
54388;SDS011;40975;50.390;8.640;2023-04-03T15:12:42;0.50;;;0.40;;
54388;SDS011;40975;50.390;8.640;2023-04-03T15:15:07;0.60;;;0.50;;
54388;SDS011;40975;50.390;8.640;2023-04-03T15:17:33;1.13;;;0.40;;
54388;SDS011;40975;50.390;8.640;2023-04-03T15:19:59;2.75;;;0.40;;
54388;SDS011;40975;50.390;8.640;2023-04-03T15:22:25;2.83;;;0.65;;
54388;SDS011;40975;50.390;8.640;2023-04-03T15:24:50;1.95;;;0.50;;
54388;SDS011;40975;50.390;8.640;2023-04-03T15:27:16;0.65;;;0.40;;
54388;SDS011;40975;50.390;8.640;2023-04-03T15:29:41;1.67;;;0.50;;
54388;SDS011;40975;50.390;8.640;2023-04-03T15:32:08;1.13;;;0.43;;
54388;SDS011;40975;50.390;8.640;2023-04-03T15:34:34;2.65;;;0.85;;
54388;SDS011;40975;50.390;8.640;2023-04-03T15:37:00;1.33;;;0.50;;
54388;SDS011;40975;50.390;8.640;2023-04-03T15:39:25;0.38;;;0.38;;
54388;SDS011;40975;50.390;8.640;2023-04-03T15:41:51;2.10;;;0.98;;
54388;SDS011;40975;50.390;8.640;2023-04-03T15:44:19;1.10;;;0.60;;
54388;SDS011;40975;50.390;8.640;2023-04-03T15:46:46;2.08;;;0.70;;
54388;SDS011;40975;50.390;8.640;2023-04-03T15:49:13;2.50;;;1.23;;
54388;SDS011;40975;50.390;8.640;2023-04-03T15:51:39;2.90;;;0.88;;
54388;SDS011;40975;50.390;8.640;2023-04-03T15:54:04;1.42;;;0.70;;
54388;SDS011;40975;50.390;8.640;2023-04-03T15:56:30;1.58;;;0.70;;
54388;SDS011;40975;50.390;8.640;2023-04-03T15:58:55;1.70;;;0.80;;
54388;SDS011;40975;50.390;8.640;2023-04-03T16:01:20;1.48;;;0.60;;
54388;SDS011;40975;50.390;8.640;2023-04-03T16:03:46;2.55;;;0.73;;
54388;SDS011;40975;50.390;8.640;2023-04-03T16:06:15;2.33;;;0.70;;
54388;SDS011;40975;50.390;8.640;2023-04-03T16:08:41;1.65;;;0.80;;
54388;SDS011;40975;50.390;8.640;2023-04-03T16:11:07;2.72;;;0.57;;
54388;SDS011;40975;50.390;8.640;2023-04-03T16:13:33;2.15;;;0.70;;
54388;SDS011;40975;50.390;8.640;2023-04-03T16:15:58;1.23;;;0.63;;
54388;SDS011;40975;50.390;8.640;2023-04-03T16:18:25;1.25;;;0.60;;
54388;SDS011;40975;50.390;8.640;2023-04-03T16:20:50;1.40;;;0.50;;